sensor_id;sensor_type;location;lat;lon;timestamp;temperature;humidity
3842;DHT22;1936;47.074;15.336;2022-09-01T00:00:07;15.40;99.90
3842;DHT22;1936;47.074;15.336;2022-09-01T00:04:20;15.30;99.90
3842;DHT22;1936;47.074;15.336;2022-09-01T00:06:24;15.30;99.90
3842;DHT22;1936;47.074;15.336;2022-09-01T00:08:27;15.30;99.90
3842;DHT22;1936;47.074;15.336;2022-09-01T00:10:30;15.40;99.90
3842;DHT22;1936;47.074;15.336;2022-09-01T00:12:33;15.40;99.90
3842;DHT22;1936;47.074;15.336;2022-09-01T00:14:39;15.40;99.90
3842;DHT22;1936;47.074;15.336;2022-09-01T00:16:42;15.50;99.90
3842;DHT22;1936;47.074;15.336;2022-09-01T00:18:51;15.40;99.90
3842;DHT22;1936;47.074;15.336;2022-09-01T00:20:55;15.30;99.90
3842;DHT22;1936;47.074;15.336;2022-09-01T00:23:00;15.30;99.90
3842;DHT22;1936;47.074;15.336;2022-09-01T00:25:04;15.30;99.90
3842;DHT22;1936;47.074;15.336;2022-09-01T00:27:08;15.30;99.90
3842;DHT22;1936;47.074;15.336;2022-09-01T00:29:13;15.30;99.90
3842;DHT22;1936;47.074;15.336;2022-09-01T00:33:21;15.20;99.90
3842;DHT22;1936;47.074;15.336;2022-09-01T00:35:26;15.30;99.90
3842;DHT22;1936;47.074;15.336;2022-09-01T00:37:29;15.20;99.90
3842;DHT22;1936;47.074;15.336;2022-09-01T00:39:33;15.30;99.90
3842;DHT22;1936;47.074;15.336;2022-09-01T00:41:38;15.30;99.90
3842;DHT22;1936;47.074;15.336;2022-09-01T00:43:49;15.30;99.90
3842;DHT22;1936;47.074;15.336;2022-09-01T00:45:52;15.30;99.90
3842;DHT22;1936;47.074;15.336;2022-09-01T00:48:01;15.30;99.90
3842;DHT22;1936;47.074;15.336;2022-09-01T00:50:09;15.30;99.90
3842;DHT22;1936;47.074;15.336;2022-09-01T00:52:18;15.30;99.90
3842;DHT22;1936;47.074;15.336;2022-09-01T00:54:26;15.30;99.90
3842;DHT22;1936;47.074;15.336;2022-09-01T00:56:31;15.30;99.90
3842;DHT22;1936;47.074;15.336;2022-09-01T00:58:36;15.30;99.90
3842;DHT22;1936;47.074;15.336;2022-09-01T01:00:40;15.20;99.90
3842;DHT22;1936;47.074;15.336;2022-09-01T01:02:45;15.20;99.90
3842;DHT22;1936;47.074;15.336;2022-09-01T01:04:49;15.20;99.90
3842;DHT22;1936;47.074;15.336;2022-09-01T01:06:57;15.20;99.90
3842;DHT22;1936;47.074;15.336;2022-09-01T01:13:18;15.20;99.90
3842;DHT22;1936;47.074;15.336;2022-09-01T01:17:26;15.30;99.90
3842;DHT22;1936;47.074;15.336;2022-09-01T01:19:38;15.30;99.90
3842;DHT22;1936;47.074;15.336;2022-09-01T01:22:01;15.20;99.90
3842;DHT22;1936;47.074;15.336;2022-09-01T01:24:25;15.30;99.90
3842;DHT22;1936;47.074;15.336;2022-09-01T01:26:28;15.30;99.90
3842;DHT22;1936;47.074;15.336;2022-09-01T01:28:33;15.30;99.90
3842;DHT22;1936;47.074;15.336;2022-09-01T01:30:38;15.20;99.90
3842;DHT22;1936;47.074;15.336;2022-09-01T01:32:42;15.10;99.90
3842;DHT22;1936;47.074;15.336;2022-09-01T01:34:48;15.00;99.90
3842;DHT22;1936;47.074;15.336;2022-09-01T01:36:52;15.10;99.90
3842;DHT22;1936;47.074;15.336;2022-09-01T01:39:05;15.00;99.90
3842;DHT22;1936;47.074;15.336;2022-09-01T01:41:11;15.00;99.90
3842;DHT22;1936;47.074;15.336;2022-09-01T01:43:14;14.80;99.90
3842;DHT22;1936;47.074;15.336;2022-09-01T01:45:23;14.70;99.90
3842;DHT22;1936;47.074;15.336;2022-09-01T01:47:26;14.70;99.90
3842;DHT22;1936;47.074;15.336;2022-09-01T01:51:33;14.70;99.90
3842;DHT22;1936;47.074;15.336;2022-09-01T01:53:38;14.80;99.90
3842;DHT22;1936;47.074;15.336;2022-09-01T01:55:41;14.70;99.90
3842;DHT22;1936;47.074;15.336;2022-09-01T01:57:47;14.80;99.90
3842;DHT22;1936;47.074;15.336;2022-09-01T01:59:54;14.70;99.90
3842;DHT22;1936;47.074;15.336;2022-09-01T02:01:58;14.70;99.90
3842;DHT22;1936;47.074;15.336;2022-09-01T02:04:05;14.80;99.90
3842;DHT22;1936;47.074;15.336;2022-09-01T02:06:09;14.80;99.90
3842;DHT22;1936;47.074;15.336;2022-09-01T02:08:13;14.60;99.90
3842;DHT22;1936;47.074;15.336;2022-09-01T02:10:19;14.60;99.90
3842;DHT22;1936;47.074;15.336;2022-09-01T02:14:28;14.60;99.90
3842;DHT22;1936;47.074;15.336;2022-09-01T02:16:35;14.60;99.90
3842;DHT22;1936;47.074;15.336;2022-09-01T02:18:41;14.60;99.90
3842;DHT22;1936;47.074;15.336;2022-09-01T02:20:45;14.60;99.90
3842;DHT22;1936;47.074;15.336;2022-09-01T02:22:50;14.60;99.90
3842;DHT22;1936;47.074;15.336;2022-09-01T02:24:56;14.50;99.90
3842;DHT22;1936;47.074;15.336;2022-09-01T02:27:02;14.50;99.90
3842;DHT22;1936;47.074;15.336;2022-09-01T02:29:08;14.60;99.90
3842;DHT22;1936;47.074;15.336;2022-09-01T02:33:25;14.50;99.90
3842;DHT22;1936;47.074;15.336;2022-09-01T02:35:29;14.50;99.90
3842;DHT22;1936;47.074;15.336;2022-09-01T02:37:33;14.50;99.90
3842;DHT22;1936;47.074;15.336;2022-09-01T02:39:36;14.40;99.90
3842;DHT22;1936;47.074;15.336;2022-09-01T02:41:40;14.40;99.90
3842;DHT22;1936;47.074;15.336;2022-09-01T02:43:43;14.30;99.90
3842;DHT22;1936;47.074;15.336;2022-09-01T02:45:47;14.30;99.90
3842;DHT22;1936;47.074;15.336;2022-09-01T02:50:00;14.40;99.90
3842;DHT22;1936;47.074;15.336;2022-09-01T02:52:04;14.40;99.90
3842;DHT22;1936;47.074;15.336;2022-09-01T02:54:08;14.40;99.90
3842;DHT22;1936;47.074;15.336;2022-09-01T02:56:11;14.30;99.90
3842;DHT22;1936;47.074;15.336;2022-09-01T02:58:16;14.30;99.90
3842;DHT22;1936;47.074;15.336;2022-09-01T03:00:25;14.30;99.90
3842;DHT22;1936;47.074;15.336;2022-09-01T03:02:32;14.40;99.90
3842;DHT22;1936;47.074;15.336;2022-09-01T03:04:39;14.40;99.90
3842;DHT22;1936;47.074;15.336;2022-09-01T03:06:43;14.50;99.90
3842;DHT22;1936;47.074;15.336;2022-09-01T03:08:47;14.40;99.90
3842;DHT22;1936;47.074;15.336;2022-09-01T03:10:51;14.30;99.90
3842;DHT22;1936;47.074;15.336;2022-09-01T03:12:56;14.40;99.90
3842;DHT22;1936;47.074;15.336;2022-09-01T03:14:59;14.40;99.90
3842;DHT22;1936;47.074;15.336;2022-09-01T03:17:03;14.30;99.90
3842;DHT22;1936;47.074;15.336;2022-09-01T03:21:14;14.30;99.90
3842;DHT22;1936;47.074;15.336;2022-09-01T03:23:18;14.20;99.90
3842;DHT22;1936;47.074;15.336;2022-09-01T03:25:22;14.30;99.90
3842;DHT22;1936;47.074;15.336;2022-09-01T03:27:25;14.20;99.90
3842;DHT22;1936;47.074;15.336;2022-09-01T03:29:30;14.30;99.90
3842;DHT22;1936;47.074;15.336;2022-09-01T03:31:33;14.30;99.90
3842;DHT22;1936;47.074;15.336;2022-09-01T03:33:37;14.30;99.90
3842;DHT22;1936;47.074;15.336;2022-09-01T03:35:40;14.20;99.90
3842;DHT22;1936;47.074;15.336;2022-09-01T03:37:45;14.30;99.90
3842;DHT22;1936;47.074;15.336;2022-09-01T03:39:48;14.10;99.90
3842;DHT22;1936;47.074;15.336;2022-09-01T03:44:00;13.80;99.90
3842;DHT22;1936;47.074;15.336;2022-09-01T03:46:04;14.10;99.90
3842;DHT22;1936;47.074;15.336;2022-09-01T03:48:08;14.20;99.90
3842;DHT22;1936;47.074;15.336;2022-09-01T03:50:14;14.20;99.90
3842;DHT22;1936;47.074;15.336;2022-09-01T03:52:21;14.20;99.90
3842;DHT22;1936;47.074;15.336;2022-09-01T03:54:30;14.10;99.90
3842;DHT22;1936;47.074;15.336;2022-09-01T03:56:34;14.00;99.90
3842;DHT22;1936;47.074;15.336;2022-09-01T03:58:40;14.10;99.90
3842;DHT22;1936;47.074;15.336;2022-09-01T04:00:48;14.10;99.90
3842;DHT22;1936;47.074;15.336;2022-09-01T04:02:53;14.10;99.90
3842;DHT22;1936;47.074;15.336;2022-09-01T04:04:58;14.00;99.90
3842;DHT22;1936;47.074;15.336;2022-09-01T04:07:05;14.00;99.90
3842;DHT22;1936;47.074;15.336;2022-09-01T04:09:08;14.10;99.90
3842;DHT22;1936;47.074;15.336;2022-09-01T04:11:15;14.10;99.90
3842;DHT22;1936;47.074;15.336;2022-09-01T04:13:22;14.20;99.90
3842;DHT22;1936;47.074;15.336;2022-09-01T04:15:27;14.10;99.90
3842;DHT22;1936;47.074;15.336;2022-09-01T04:17:30;14.10;99.90
3842;DHT22;1936;47.074;15.336;2022-09-01T04:21:58;13.90;99.90
3842;DHT22;1936;47.074;15.336;2022-09-01T04:24:02;13.80;99.90
3842;DHT22;1936;47.074;15.336;2022-09-01T04:26:09;13.80;99.90
3842;DHT22;1936;47.074;15.336;2022-09-01T04:28:17;13.80;99.90
3842;DHT22;1936;47.074;15.336;2022-09-01T04:30:25;13.90;99.90
3842;DHT22;1936;47.074;15.336;2022-09-01T04:36:43;13.90;99.90
3842;DHT22;1936;47.074;15.336;2022-09-01T04:38:53;13.80;99.90
3842;DHT22;1936;47.074;15.336;2022-09-01T04:40:57;13.80;99.90
3842;DHT22;1936;47.074;15.336;2022-09-01T04:43:00;13.80;99.90
3842;DHT22;1936;47.074;15.336;2022-09-01T04:45:06;13.80;99.90
3842;DHT22;1936;47.074;15.336;2022-09-01T04:47:12;13.80;99.90
3842;DHT22;1936;47.074;15.336;2022-09-01T04:49:17;13.80;99.90
3842;DHT22;1936;47.074;15.336;2022-09-01T04:51:24;13.70;99.90
3842;DHT22;1936;47.074;15.336;2022-09-01T04:53:28;13.70;99.90
3842;DHT22;1936;47.074;15.336;2022-09-01T04:55:32;13.80;99.90
3842;DHT22;1936;47.074;15.336;2022-09-01T04:57:35;13.80;99.90
3842;DHT22;1936;47.074;15.336;2022-09-01T04:59:42;14.00;99.90
3842;DHT22;1936;47.074;15.336;2022-09-01T05:01:48;14.00;99.90
3842;DHT22;1936;47.074;15.336;2022-09-01T05:03:55;14.20;99.90
3842;DHT22;1936;47.074;15.336;2022-09-01T05:06:04;14.30;99.90
3842;DHT22;1936;47.074;15.336;2022-09-01T05:08:16;14.40;99.90
3842;DHT22;1936;47.074;15.336;2022-09-01T05:10:25;14.50;99.90
3842;DHT22;1936;47.074;15.336;2022-09-01T05:14:34;14.60;99.90
3842;DHT22;1936;47.074;15.336;2022-09-01T05:16:38;14.60;99.90
3842;DHT22;1936;47.074;15.336;2022-09-01T05:18:44;14.60;99.90
3842;DHT22;1936;47.074;15.336;2022-09-01T05:20:49;14.70;99.90
3842;DHT22;1936;47.074;15.336;2022-09-01T05:22:53;14.70;99.90
3842;DHT22;1936;47.074;15.336;2022-09-01T05:24:57;14.70;99.90
3842;DHT22;1936;47.074;15.336;2022-09-01T05:27:14;14.80;99.90
3842;DHT22;1936;47.074;15.336;2022-09-01T05:29:18;14.80;99.90
3842;DHT22;1936;47.074;15.336;2022-09-01T05:33:26;14.90;99.90
3842;DHT22;1936;47.074;15.336;2022-09-01T05:35:31;15.30;99.90
3842;DHT22;1936;47.074;15.336;2022-09-01T05:37:36;15.50;99.90
3842;DHT22;1936;47.074;15.336;2022-09-01T05:39:40;15.70;99.90
3842;DHT22;1936;47.074;15.336;2022-09-01T05:41:44;16.00;99.90
3842;DHT22;1936;47.074;15.336;2022-09-01T05:43:49;16.00;99.90
3842;DHT22;1936;47.074;15.336;2022-09-01T05:46:04;16.00;99.90
3842;DHT22;1936;47.074;15.336;2022-09-01T05:48:09;16.10;99.90
3842;DHT22;1936;47.074;15.336;2022-09-01T05:50:13;16.20;99.90
3842;DHT22;1936;47.074;15.336;2022-09-01T05:52:18;16.40;99.90
3842;DHT22;1936;47.074;15.336;2022-09-01T05:54:27;16.40;99.90
3842;DHT22;1936;47.074;15.336;2022-09-01T05:56:30;16.50;99.90
3842;DHT22;1936;47.074;15.336;2022-09-01T05:58:35;16.30;99.90
3842;DHT22;1936;47.074;15.336;2022-09-01T06:01:01;16.40;99.90
3842;DHT22;1936;47.074;15.336;2022-09-01T06:03:04;16.50;99.90
3842;DHT22;1936;47.074;15.336;2022-09-01T06:05:10;16.40;99.90
3842;DHT22;1936;47.074;15.336;2022-09-01T06:07:17;16.30;99.90
3842;DHT22;1936;47.074;15.336;2022-09-01T06:09:26;16.40;99.90
3842;DHT22;1936;47.074;15.336;2022-09-01T06:11:30;16.40;99.90
3842;DHT22;1936;47.074;15.336;2022-09-01T06:13:33;16.50;99.90
3842;DHT22;1936;47.074;15.336;2022-09-01T06:15:37;16.50;99.90
3842;DHT22;1936;47.074;15.336;2022-09-01T06:17:41;16.40;99.90
3842;DHT22;1936;47.074;15.336;2022-09-01T06:19:45;16.20;99.90
3842;DHT22;1936;47.074;15.336;2022-09-01T06:21:49;16.20;99.90
3842;DHT22;1936;47.074;15.336;2022-09-01T06:23:55;16.20;99.90
3842;DHT22;1936;47.074;15.336;2022-09-01T06:25:59;16.20;99.90
3842;DHT22;1936;47.074;15.336;2022-09-01T06:28:05;16.20;99.90
3842;DHT22;1936;47.074;15.336;2022-09-01T06:30:10;16.30;99.90
3842;DHT22;1936;47.074;15.336;2022-09-01T06:34:28;16.50;99.90
3842;DHT22;1936;47.074;15.336;2022-09-01T06:36:37;16.40;99.90
3842;DHT22;1936;47.074;15.336;2022-09-01T06:38:41;16.60;99.90
3842;DHT22;1936;47.074;15.336;2022-09-01T06:40:46;16.60;99.90
3842;DHT22;1936;47.074;15.336;2022-09-01T06:44:55;16.70;99.90
3842;DHT22;1936;47.074;15.336;2022-09-01T06:46:59;16.80;99.90
3842;DHT22;1936;47.074;15.336;2022-09-01T06:49:02;17.10;99.90
3842;DHT22;1936;47.074;15.336;2022-09-01T06:51:06;17.30;99.90
3842;DHT22;1936;47.074;15.336;2022-09-01T06:53:21;17.30;99.90
3842;DHT22;1936;47.074;15.336;2022-09-01T06:57:45;17.40;99.90
3842;DHT22;1936;47.074;15.336;2022-09-01T07:00:09;17.60;99.90
3842;DHT22;1936;47.074;15.336;2022-09-01T07:02:20;18.00;99.90
3842;DHT22;1936;47.074;15.336;2022-09-01T07:06:47;18.10;99.90
3842;DHT22;1936;47.074;15.336;2022-09-01T07:09:02;18.40;99.90
3842;DHT22;1936;47.074;15.336;2022-09-01T07:11:28;18.20;99.90
3842;DHT22;1936;47.074;15.336;2022-09-01T07:16:20;17.90;99.90
3842;DHT22;1936;47.074;15.336;2022-09-01T07:18:36;18.30;99.90
3842;DHT22;1936;47.074;15.336;2022-09-01T07:23:09;18.50;99.90
3842;DHT22;1936;47.074;15.336;2022-09-01T07:25:14;18.40;99.90
3842;DHT22;1936;47.074;15.336;2022-09-01T07:27:18;18.60;99.90
3842;DHT22;1936;47.074;15.336;2022-09-01T07:29:37;18.60;99.90
3842;DHT22;1936;47.074;15.336;2022-09-01T07:32:01;18.60;99.90
3842;DHT22;1936;47.074;15.336;2022-09-01T07:34:25;19.00;99.90
3842;DHT22;1936;47.074;15.336;2022-09-01T07:39:17;21.20;99.90
3842;DHT22;1936;47.074;15.336;2022-09-01T07:41:41;21.30;99.90
3842;DHT22;1936;47.074;15.336;2022-09-01T07:44:04;21.80;99.50
3842;DHT22;1936;47.074;15.336;2022-09-01T07:48:38;23.20;95.10
3842;DHT22;1936;47.074;15.336;2022-09-01T07:51:01;23.20;94.90
3842;DHT22;1936;47.074;15.336;2022-09-01T07:53:27;23.60;91.90
3842;DHT22;1936;47.074;15.336;2022-09-01T07:59:39;24.90;89.00
3842;DHT22;1936;47.074;15.336;2022-09-01T08:01:45;25.00;82.00
3842;DHT22;1936;47.074;15.336;2022-09-01T08:03:50;25.50;82.30
3842;DHT22;1936;47.074;15.336;2022-09-01T08:06:03;26.10;80.50
3842;DHT22;1936;47.074;15.336;2022-09-01T08:08:07;25.90;71.70
3842;DHT22;1936;47.074;15.336;2022-09-01T08:10:30;25.50;75.20
3842;DHT22;1936;47.074;15.336;2022-09-01T08:12:34;25.30;74.10
3842;DHT22;1936;47.074;15.336;2022-09-01T08:14:37;25.00;74.10
3842;DHT22;1936;47.074;15.336;2022-09-01T08:16:41;25.30;73.40
3842;DHT22;1936;47.074;15.336;2022-09-01T08:19:06;24.90;72.50
3842;DHT22;1936;47.074;15.336;2022-09-01T08:23:24;26.40;74.90
3842;DHT22;1936;47.074;15.336;2022-09-01T08:25:28;27.70;70.70
3842;DHT22;1936;47.074;15.336;2022-09-01T08:27:32;27.80;71.30
3842;DHT22;1936;47.074;15.336;2022-09-01T08:29:37;28.80;57.60
3842;DHT22;1936;47.074;15.336;2022-09-01T08:31:40;29.10;57.10
3842;DHT22;1936;47.074;15.336;2022-09-01T08:33:45;29.00;58.50
3842;DHT22;1936;47.074;15.336;2022-09-01T08:35:50;29.20;56.90
3842;DHT22;1936;47.074;15.336;2022-09-01T08:37:55;29.80;53.70
3842;DHT22;1936;47.074;15.336;2022-09-01T08:39:58;29.80;55.20
3842;DHT22;1936;47.074;15.336;2022-09-01T08:42:10;29.00;56.80
3842;DHT22;1936;47.074;15.336;2022-09-01T08:44:27;28.30;53.70
3842;DHT22;1936;47.074;15.336;2022-09-01T08:46:38;27.40;55.50
3842;DHT22;1936;47.074;15.336;2022-09-01T08:48:47;27.00;59.10
3842;DHT22;1936;47.074;15.336;2022-09-01T08:51:19;26.90;56.40
3842;DHT22;1936;47.074;15.336;2022-09-01T08:55:36;27.20;57.10
3842;DHT22;1936;47.074;15.336;2022-09-01T08:57:45;28.30;57.60
3842;DHT22;1936;47.074;15.336;2022-09-01T08:59:50;29.00;55.90
3842;DHT22;1936;47.074;15.336;2022-09-01T09:04:24;29.60;54.10
3842;DHT22;1936;47.074;15.336;2022-09-01T09:06:36;30.50;54.70
3842;DHT22;1936;47.074;15.336;2022-09-01T09:08:57;31.40;54.10
3842;DHT22;1936;47.074;15.336;2022-09-01T09:13:11;33.10;45.60
3842;DHT22;1936;47.074;15.336;2022-09-01T09:17:29;31.90;45.70
3842;DHT22;1936;47.074;15.336;2022-09-01T09:19:36;31.20;47.60
3842;DHT22;1936;47.074;15.336;2022-09-01T09:21:46;31.20;51.10
3842;DHT22;1936;47.074;15.336;2022-09-01T09:23:55;32.10;48.30
3842;DHT22;1936;47.074;15.336;2022-09-01T09:26:01;32.00;48.10
3842;DHT22;1936;47.074;15.336;2022-09-01T09:28:05;31.90;44.80
3842;DHT22;1936;47.074;15.336;2022-09-01T09:30:12;31.90;45.00
3842;DHT22;1936;47.074;15.336;2022-09-01T09:32:15;31.40;44.80
3842;DHT22;1936;47.074;15.336;2022-09-01T09:34:40;31.30;46.10
3842;DHT22;1936;47.074;15.336;2022-09-01T09:39:09;30.60;45.60
3842;DHT22;1936;47.074;15.336;2022-09-01T09:43:28;30.20;46.50
3842;DHT22;1936;47.074;15.336;2022-09-01T09:45:35;30.70;47.30
3842;DHT22;1936;47.074;15.336;2022-09-01T09:47:44;31.40;46.10
3842;DHT22;1936;47.074;15.336;2022-09-01T09:50:10;31.90;43.80
3842;DHT22;1936;47.074;15.336;2022-09-01T09:52:17;32.10;45.90
3842;DHT22;1936;47.074;15.336;2022-09-01T09:54:23;32.70;43.90
3842;DHT22;1936;47.074;15.336;2022-09-01T09:56:27;32.90;46.90
3842;DHT22;1936;47.074;15.336;2022-09-01T09:58:37;33.70;42.60
3842;DHT22;1936;47.074;15.336;2022-09-01T10:00:58;34.40;44.30
3842;DHT22;1936;47.074;15.336;2022-09-01T10:03:06;35.00;41.00
3842;DHT22;1936;47.074;15.336;2022-09-01T10:05:26;33.90;41.30
3842;DHT22;1936;47.074;15.336;2022-09-01T10:07:35;33.10;41.60
3842;DHT22;1936;47.074;15.336;2022-09-01T10:09:38;33.10;40.20
3842;DHT22;1936;47.074;15.336;2022-09-01T10:13:47;33.70;44.70
3842;DHT22;1936;47.074;15.336;2022-09-01T10:15:53;34.30;39.90
3842;DHT22;1936;47.074;15.336;2022-09-01T10:18:01;34.30;41.60
3842;DHT22;1936;47.074;15.336;2022-09-01T10:20:24;33.30;42.40
3842;DHT22;1936;47.074;15.336;2022-09-01T10:22:28;32.00;42.90
3842;DHT22;1936;47.074;15.336;2022-09-01T10:24:37;32.10;44.40
3842;DHT22;1936;47.074;15.336;2022-09-01T10:26:50;32.30;43.60
3842;DHT22;1936;47.074;15.336;2022-09-01T10:28:57;33.60;41.10
3842;DHT22;1936;47.074;15.336;2022-09-01T10:33:11;34.50;42.50
3842;DHT22;1936;47.074;15.336;2022-09-01T10:35:24;33.50;42.60
3842;DHT22;1936;47.074;15.336;2022-09-01T10:37:28;33.10;41.70
3842;DHT22;1936;47.074;15.336;2022-09-01T10:39:34;32.00;41.00
3842;DHT22;1936;47.074;15.336;2022-09-01T10:41:58;30.10;43.50
3842;DHT22;1936;47.074;15.336;2022-09-01T10:44:09;29.50;49.30
3842;DHT22;1936;47.074;15.336;2022-09-01T10:46:42;29.90;46.60
3842;DHT22;1936;47.074;15.336;2022-09-01T10:48:53;29.60;45.40
3842;DHT22;1936;47.074;15.336;2022-09-01T10:51:43;28.70;44.30
3842;DHT22;1936;47.074;15.336;2022-09-01T10:53:53;28.10;46.30
3842;DHT22;1936;47.074;15.336;2022-09-01T10:56:06;27.30;48.70
3842;DHT22;1936;47.074;15.336;2022-09-01T10:58:34;26.70;48.70
3842;DHT22;1936;47.074;15.336;2022-09-01T11:01:01;26.20;51.30
3842;DHT22;1936;47.074;15.336;2022-09-01T11:06:02;26.30;53.00
3842;DHT22;1936;47.074;15.336;2022-09-01T11:08:40;27.00;52.30
3842;DHT22;1936;47.074;15.336;2022-09-01T11:10:54;27.60;50.90
3842;DHT22;1936;47.074;15.336;2022-09-01T11:13:30;27.50;50.00
3842;DHT22;1936;47.074;15.336;2022-09-01T11:15:37;26.40;49.20
3842;DHT22;1936;47.074;15.336;2022-09-01T11:17:55;25.70;50.20
3842;DHT22;1936;47.074;15.336;2022-09-01T11:20:05;25.10;54.60
3842;DHT22;1936;47.074;15.336;2022-09-01T11:22:24;25.50;52.10
3842;DHT22;1936;47.074;15.336;2022-09-01T11:24:50;26.50;51.00
3842;DHT22;1936;47.074;15.336;2022-09-01T11:27:03;26.90;52.80
3842;DHT22;1936;47.074;15.336;2022-09-01T11:29:51;26.70;52.50
3842;DHT22;1936;47.074;15.336;2022-09-01T11:31:57;27.10;51.90
3842;DHT22;1936;47.074;15.336;2022-09-01T11:34:19;28.00;48.40
3842;DHT22;1936;47.074;15.336;2022-09-01T11:36:28;28.50;51.00
3842;DHT22;1936;47.074;15.336;2022-09-01T11:38:48;28.10;46.20
3842;DHT22;1936;47.074;15.336;2022-09-01T11:40:54;28.00;50.30
3842;DHT22;1936;47.074;15.336;2022-09-01T11:43:00;27.70;50.40
3842;DHT22;1936;47.074;15.336;2022-09-01T11:45:16;27.50;54.10
3842;DHT22;1936;47.074;15.336;2022-09-01T11:47:26;27.30;49.10
3842;DHT22;1936;47.074;15.336;2022-09-01T11:49:33;27.30;49.60
3842;DHT22;1936;47.074;15.336;2022-09-01T11:51:44;26.50;48.50
3842;DHT22;1936;47.074;15.336;2022-09-01T11:53:48;25.60;51.40
3842;DHT22;1936;47.074;15.336;2022-09-01T11:56:12;25.20;55.80
3842;DHT22;1936;47.074;15.336;2022-09-01T11:58:30;24.70;64.90
3842;DHT22;1936;47.074;15.336;2022-09-01T12:00:41;24.50;66.10
3842;DHT22;1936;47.074;15.336;2022-09-01T12:02:47;24.20;69.20
3842;DHT22;1936;47.074;15.336;2022-09-01T12:04:53;24.30;67.20
3842;DHT22;1936;47.074;15.336;2022-09-01T12:06:59;24.20;70.90
3842;DHT22;1936;47.074;15.336;2022-09-01T12:09:03;23.80;68.20
3842;DHT22;1936;47.074;15.336;2022-09-01T12:11:10;23.60;70.30
3842;DHT22;1936;47.074;15.336;2022-09-01T12:13:19;23.30;75.50
3842;DHT22;1936;47.074;15.336;2022-09-01T12:15:25;23.30;73.70
3842;DHT22;1936;47.074;15.336;2022-09-01T12:17:30;22.90;76.10
3842;DHT22;1936;47.074;15.336;2022-09-01T12:19:34;22.70;77.40
3842;DHT22;1936;47.074;15.336;2022-09-01T12:21:40;22.50;80.20
3842;DHT22;1936;47.074;15.336;2022-09-01T12:25:48;22.70;79.00
3842;DHT22;1936;47.074;15.336;2022-09-01T12:27:52;22.90;82.10
3842;DHT22;1936;47.074;15.336;2022-09-01T12:29:59;23.10;83.50
3842;DHT22;1936;47.074;15.336;2022-09-01T12:32:03;23.30;83.80
3842;DHT22;1936;47.074;15.336;2022-09-01T12:34:24;23.50;81.90
3842;DHT22;1936;47.074;15.336;2022-09-01T12:36:29;23.30;82.40
3842;DHT22;1936;47.074;15.336;2022-09-01T12:38:33;23.30;84.80
3842;DHT22;1936;47.074;15.336;2022-09-01T12:40:36;23.10;83.80
3842;DHT22;1936;47.074;15.336;2022-09-01T12:42:49;22.90;82.20
3842;DHT22;1936;47.074;15.336;2022-09-01T12:44:54;22.40;90.20
3842;DHT22;1936;47.074;15.336;2022-09-01T12:47:00;22.10;87.50
3842;DHT22;1936;47.074;15.336;2022-09-01T12:49:17;22.00;87.90
3842;DHT22;1936;47.074;15.336;2022-09-01T12:51:22;22.10;89.50
3842;DHT22;1936;47.074;15.336;2022-09-01T12:53:33;21.90;90.10
3842;DHT22;1936;47.074;15.336;2022-09-01T12:55:38;21.70;90.20
3842;DHT22;1936;47.074;15.336;2022-09-01T12:57:50;21.50;94.50
3842;DHT22;1936;47.074;15.336;2022-09-01T13:00:08;21.40;92.90
3842;DHT22;1936;47.074;15.336;2022-09-01T13:02:26;21.50;96.30
3842;DHT22;1936;47.074;15.336;2022-09-01T13:04:31;21.30;96.20
3842;DHT22;1936;47.074;15.336;2022-09-01T13:06:35;21.40;96.60
3842;DHT22;1936;47.074;15.336;2022-09-01T13:08:38;21.60;94.40
3842;DHT22;1936;47.074;15.336;2022-09-01T13:10:44;21.70;93.30
3842;DHT22;1936;47.074;15.336;2022-09-01T13:12:48;21.90;94.20
3842;DHT22;1936;47.074;15.336;2022-09-01T13:14:51;22.00;95.00
3842;DHT22;1936;47.074;15.336;2022-09-01T13:16:58;22.10;94.80
3842;DHT22;1936;47.074;15.336;2022-09-01T13:19:02;22.40;95.40
3842;DHT22;1936;47.074;15.336;2022-09-01T13:23:34;22.70;92.00
3842;DHT22;1936;47.074;15.336;2022-09-01T13:25:38;22.80;94.90
3842;DHT22;1936;47.074;15.336;2022-09-01T13:27:45;22.70;94.00
3842;DHT22;1936;47.074;15.336;2022-09-01T13:31:56;22.60;93.60
3842;DHT22;1936;47.074;15.336;2022-09-01T13:34:19;22.70;92.50
3842;DHT22;1936;47.074;15.336;2022-09-01T13:36:25;22.60;93.70
3842;DHT22;1936;47.074;15.336;2022-09-01T13:38:49;22.30;93.50
3842;DHT22;1936;47.074;15.336;2022-09-01T13:41:04;22.00;94.90
3842;DHT22;1936;47.074;15.336;2022-09-01T13:43:08;22.00;95.50
3842;DHT22;1936;47.074;15.336;2022-09-01T13:45:13;21.90;93.00
3842;DHT22;1936;47.074;15.336;2022-09-01T13:47:21;21.90;96.20
3842;DHT22;1936;47.074;15.336;2022-09-01T13:49:30;21.90;97.30
3842;DHT22;1936;47.074;15.336;2022-09-01T13:51:53;21.80;94.20
3842;DHT22;1936;47.074;15.336;2022-09-01T13:53:58;21.70;96.50
3842;DHT22;1936;47.074;15.336;2022-09-01T13:56:02;21.60;96.20
3842;DHT22;1936;47.074;15.336;2022-09-01T13:58:06;21.40;96.20
3842;DHT22;1936;47.074;15.336;2022-09-01T14:00:11;21.40;98.00
3842;DHT22;1936;47.074;15.336;2022-09-01T14:02:18;21.40;95.60
3842;DHT22;1936;47.074;15.336;2022-09-01T14:04:21;21.30;97.20
3842;DHT22;1936;47.074;15.336;2022-09-01T14:06:25;21.20;96.80
3842;DHT22;1936;47.074;15.336;2022-09-01T14:08:28;21.30;98.60
3842;DHT22;1936;47.074;15.336;2022-09-01T14:10:38;21.20;99.90
3842;DHT22;1936;47.074;15.336;2022-09-01T14:12:42;21.20;97.70
3842;DHT22;1936;47.074;15.336;2022-09-01T14:14:46;21.10;97.00
3842;DHT22;1936;47.074;15.336;2022-09-01T14:17:10;21.00;98.50
3842;DHT22;1936;47.074;15.336;2022-09-01T14:19:13;20.90;97.30
3842;DHT22;1936;47.074;15.336;2022-09-01T14:21:17;20.90;97.90
3842;DHT22;1936;47.074;15.336;2022-09-01T14:23:21;21.00;92.90
3842;DHT22;1936;47.074;15.336;2022-09-01T14:25:25;21.00;94.80
3842;DHT22;1936;47.074;15.336;2022-09-01T14:27:30;21.10;92.20
3842;DHT22;1936;47.074;15.336;2022-09-01T14:29:34;21.00;92.40
3842;DHT22;1936;47.074;15.336;2022-09-01T14:31:41;20.90;86.00
3842;DHT22;1936;47.074;15.336;2022-09-01T14:33:46;21.00;88.30
3842;DHT22;1936;47.074;15.336;2022-09-01T14:35:49;20.80;86.30
3842;DHT22;1936;47.074;15.336;2022-09-01T14:37:53;20.80;87.30
3842;DHT22;1936;47.074;15.336;2022-09-01T14:39:57;20.80;89.70
3842;DHT22;1936;47.074;15.336;2022-09-01T14:42:00;20.70;90.00
3842;DHT22;1936;47.074;15.336;2022-09-01T14:44:08;20.50;90.10
3842;DHT22;1936;47.074;15.336;2022-09-01T14:46:12;20.60;83.30
3842;DHT22;1936;47.074;15.336;2022-09-01T14:48:16;20.50;85.30
3842;DHT22;1936;47.074;15.336;2022-09-01T14:50:21;20.40;85.60
3842;DHT22;1936;47.074;15.336;2022-09-01T14:52:25;20.30;86.10
3842;DHT22;1936;47.074;15.336;2022-09-01T14:54:28;20.30;88.60
3842;DHT22;1936;47.074;15.336;2022-09-01T14:56:32;20.60;86.00
3842;DHT22;1936;47.074;15.336;2022-09-01T14:58:35;20.40;86.30
3842;DHT22;1936;47.074;15.336;2022-09-01T15:00:40;20.30;85.40
3842;DHT22;1936;47.074;15.336;2022-09-01T15:02:44;20.40;86.50
3842;DHT22;1936;47.074;15.336;2022-09-01T15:04:47;20.30;87.10
3842;DHT22;1936;47.074;15.336;2022-09-01T15:06:50;20.20;88.80